createdAt,value
2023-02-11T00:02:42.544Z,47.60
2023-02-11T00:07:45.803Z,51.60
2023-02-11T00:12:49.242Z,49.30
2023-02-11T00:17:52.646Z,42.60
2023-02-11T00:23:08.306Z,40.70
2023-02-11T00:28:14.015Z,37.40
2023-02-11T00:33:17.279Z,39.50
2023-02-11T00:38:20.429Z,41.00
2023-02-11T00:43:23.844Z,40.50
2023-02-11T00:48:27.775Z,40.90
2023-02-11T00:53:32.027Z,41.60
2023-02-11T00:58:36.364Z,40.00
2023-02-11T01:03:40.012Z,36.20
2023-02-11T01:08:46.608Z,34.80
2023-02-11T01:13:51.019Z,36.60
2023-02-11T01:18:54.648Z,32.10
2023-02-11T01:23:57.848Z,39.10
2023-02-11T01:29:01.347Z,39.60
2023-02-11T01:34:04.614Z,29.80
2023-02-11T01:39:10.455Z,30.60
2023-02-11T01:44:40.171Z,31.80
2023-02-11T01:49:48.096Z,33.10
2023-02-11T01:55:14.295Z,36.40
2023-02-11T02:00:26.530Z,36.20
2023-02-11T02:05:39.298Z,33.40
2023-02-11T02:10:46.033Z,36.90
2023-02-11T02:15:55.289Z,31.80
2023-02-11T02:21:26.882Z,31.80
2023-02-11T02:26:58.099Z,32.60
2023-02-11T02:32:38.079Z,33.80
2023-02-11T02:37:53.297Z,32.10
2023-02-11T02:42:57.978Z,31.60
2023-02-11T02:48:01.414Z,31.80
2023-02-11T02:53:23.631Z,31.80
2023-02-11T02:58:41.917Z,32.90
2023-02-11T03:04:11.415Z,33.00
2023-02-11T03:09:28.378Z,29.40
2023-02-11T03:14:34.352Z,32.90
2023-02-11T03:19:43.955Z,27.90
2023-02-11T03:24:48.108Z,34.80
2023-02-11T03:30:12.728Z,31.40
2023-02-11T03:35:26.475Z,26.90
2023-02-11T03:40:35.528Z,34.50
2023-02-11T03:45:39.896Z,32.60
2023-02-11T03:50:57.099Z,31.00
2023-02-11T03:56:24.552Z,34.50
2023-02-11T04:01:27.640Z,35.00
2023-02-11T04:06:31.052Z,33.40
2023-02-11T04:11:34.351Z,36.20
2023-02-11T04:16:37.633Z,34.20
2023-02-11T04:21:41.093Z,32.30
2023-02-11T04:26:44.539Z,35.60
2023-02-11T04:31:48.569Z,39.30
2023-02-11T04:36:52.080Z,38.50
2023-02-11T04:41:57.999Z,37.20
2023-02-11T04:47:08.159Z,33.10
2023-02-11T04:52:11.714Z,36.00
2023-02-11T04:57:25.482Z,40.90
2023-02-11T05:02:28.854Z,40.40
2023-02-11T05:07:32.637Z,41.40
2023-02-11T05:12:35.945Z,38.90
2023-02-11T05:17:39.256Z,37.70
2023-02-11T05:22:42.586Z,40.30
2023-02-11T05:27:45.752Z,41.10
2023-02-11T05:32:49.026Z,40.40
2023-02-11T05:37:52.315Z,35.80
2023-02-11T05:42:55.748Z,36.10
2023-02-11T05:47:58.805Z,38.40
2023-02-11T05:53:01.995Z,37.90
2023-02-11T05:58:07.088Z,39.80
2023-02-11T06:03:10.396Z,42.00
2023-02-11T06:08:13.556Z,39.80
2023-02-11T06:13:18.874Z,40.40
2023-02-11T06:18:21.971Z,38.30
2023-02-11T06:23:25.159Z,43.70
2023-02-11T06:28:29.599Z,40.40
2023-02-11T06:33:33.875Z,45.70
2023-02-11T06:38:37.099Z,47.20
2023-02-11T06:43:41.668Z,44.40
2023-02-11T06:48:45.168Z,42.00
2023-02-11T06:53:48.810Z,44.20
2023-02-11T06:58:55.578Z,45.40
2023-02-11T07:03:58.894Z,46.80
2023-02-11T07:09:11.154Z,44.90
2023-02-11T07:14:14.449Z,45.30
2023-02-11T07:19:17.726Z,47.30
2023-02-11T07:24:21.067Z,43.70
2023-02-11T07:29:24.229Z,47.90
2023-02-11T07:34:27.515Z,48.90
2023-02-11T07:39:30.886Z,50.30
2023-02-11T07:44:34.800Z,51.20
2023-02-11T07:49:37.931Z,54.40
2023-02-11T07:54:41.524Z,48.70
2023-02-11T07:59:44.729Z,49.80
2023-02-11T08:04:48.063Z,53.20
2023-02-11T08:09:51.396Z,54.00
2023-02-11T08:15:05.100Z,56.30
2023-02-11T08:20:08.799Z,58.20
2023-02-11T08:25:11.961Z,56.30
2023-02-11T08:30:15.320Z,51.60
2023-02-11T08:35:18.998Z,56.20
2023-02-11T08:40:32.583Z,54.70
2023-02-11T08:45:35.747Z,57.50
2023-02-11T08:50:40.018Z,54.00
2023-02-11T08:55:54.634Z,50.70
2023-02-11T09:00:58.470Z,52.30
2023-02-11T09:06:23.582Z,52.80
2023-02-11T09:11:35.086Z,54.50
2023-02-11T09:16:38.233Z,56.40
2023-02-11T09:21:41.640Z,53.40
2023-02-11T09:26:45.091Z,51.00
2023-02-11T09:31:48.378Z,51.00
2023-02-11T09:36:51.757Z,50.50
2023-02-11T09:42:06.897Z,56.20
2023-02-11T09:47:26.639Z,51.30
2023-02-11T09:52:49.483Z,49.00
2023-02-11T10:03:20.861Z,54.80
2023-02-11T10:08:46.774Z,56.80
2023-02-11T10:13:52.833Z,48.90
2023-02-11T10:19:15.753Z,48.40
2023-02-11T10:24:20.169Z,47.70
2023-02-11T10:29:42.256Z,50.50
2023-02-11T10:34:48.826Z,50.00
2023-02-11T10:39:51.988Z,56.70
2023-02-11T10:45:00.669Z,47.80
2023-02-11T10:50:25.463Z,48.30
2023-02-11T10:55:29.339Z,47.90
2023-02-11T11:00:43.721Z,49.50
2023-02-11T11:05:53.460Z,54.10
2023-02-11T11:11:09.121Z,53.40
2023-02-11T11:16:12.657Z,52.50
2023-02-11T11:21:29.696Z,50.10
2023-02-11T11:26:43.988Z,55.00
2023-02-11T11:31:52.230Z,61.00
2023-02-11T11:36:57.409Z,58.90
2023-02-11T11:42:05.678Z,60.40
2023-02-11T11:47:22.325Z,58.80
2023-02-11T11:52:37.539Z,67.20
2023-02-11T11:57:41.100Z,65.80
2023-02-11T12:03:18.170Z,65.30
2023-02-11T12:08:42.238Z,54.80
2023-02-11T12:14:12.824Z,57.00
2023-02-11T12:19:37.914Z,60.70
2023-02-11T12:25:02.943Z,56.90
2023-02-11T12:30:15.167Z,62.10
2023-02-11T12:35:30.480Z,56.90
2023-02-11T12:40:44.435Z,65.20
2023-02-11T12:46:19.256Z,61.60
2023-02-11T12:52:08.549Z,60.60
2023-02-11T12:57:28.542Z,57.30
2023-02-11T13:02:54.952Z,53.60
2023-02-11T13:08:09.783Z,59.60
2023-02-11T13:13:19.115Z,54.00
2023-02-11T13:18:45.028Z,58.40
2023-02-11T13:24:13.200Z,56.90
2023-02-11T13:29:56.235Z,59.70
2023-02-11T13:34:59.391Z,66.10
2023-02-11T13:40:07.647Z,66.20
2023-02-11T13:45:26.959Z,61.40
2023-02-11T13:50:37.419Z,66.80
2023-02-11T13:55:46.292Z,64.80
2023-02-11T14:00:52.199Z,64.60
2023-02-11T14:06:40.108Z,70.80
2023-02-11T14:11:49.831Z,64.70
2023-02-11T14:16:59.652Z,61.40
2023-02-11T14:22:26.785Z,67.90
2023-02-11T14:27:49.068Z,68.40
2023-02-11T14:33:16.636Z,62.10
2023-02-11T14:38:53.908Z,60.90
2023-02-11T14:44:01.326Z,61.10
2023-02-11T14:49:05.785Z,56.80
2023-02-11T14:54:19.118Z,61.30
2023-02-11T14:59:23.079Z,61.40
2023-02-11T15:04:29.378Z,58.90
2023-02-11T15:09:45.723Z,59.80
2023-02-11T15:14:51.913Z,62.00
2023-02-11T15:20:00.184Z,55.40
2023-02-11T15:25:14.859Z,56.80
2023-02-11T15:30:25.482Z,53.60
2023-02-11T15:35:32.923Z,58.30
2023-02-11T15:40:37.731Z,55.10
2023-02-11T15:45:52.656Z,51.40
2023-02-11T15:50:59.223Z,51.80
2023-02-11T15:56:11.929Z,58.90
2023-02-11T16:06:28.090Z,58.60
2023-02-11T16:11:35.198Z,57.10
2023-02-11T16:16:38.906Z,49.00
2023-02-11T16:21:45.500Z,53.00
2023-02-11T16:26:54.619Z,49.90
2023-02-11T16:32:22.676Z,49.30
2023-02-11T16:37:26.360Z,45.10
2023-02-11T16:42:29.550Z,43.40
2023-02-11T16:47:35.001Z,44.30
2023-02-11T16:52:58.442Z,45.10
2023-02-11T16:58:02.064Z,45.30
2023-02-11T17:03:08.246Z,40.60
2023-02-11T17:08:12.159Z,41.10
2023-02-11T17:13:15.335Z,40.20
2023-02-11T17:18:18.782Z,45.80
2023-02-11T17:23:21.973Z,41.30
2023-02-11T17:28:25.335Z,38.80
2023-02-11T17:33:28.905Z,35.80
2023-02-11T17:38:32.176Z,38.20
2023-02-11T17:43:35.574Z,38.10
2023-02-11T17:48:39.202Z,40.50
2023-02-11T17:53:42.593Z,36.80
2023-02-11T17:58:46.256Z,41.00
2023-02-11T18:03:49.408Z,37.90
2023-02-11T18:08:52.842Z,36.80
2023-02-11T18:13:56.934Z,41.30
2023-02-11T18:19:00.152Z,38.10
2023-02-11T18:24:06.711Z,36.80
2023-02-11T18:29:10.643Z,34.70
2023-02-11T18:34:14.129Z,39.80
2023-02-11T18:39:19.648Z,40.00
2023-02-11T18:44:24.853Z,36.20
2023-02-11T18:49:28.400Z,33.50
2023-02-11T18:54:31.803Z,35.20
2023-02-11T18:59:34.998Z,36.50
2023-02-11T19:04:38.460Z,35.00
2023-02-11T19:09:41.982Z,34.40
2023-02-11T19:14:45.195Z,32.10
2023-02-11T19:19:48.534Z,32.60
2023-02-11T19:24:51.712Z,30.70
2023-02-11T19:29:55.134Z,27.40
2023-02-11T19:34:58.237Z,27.30
2023-02-11T19:40:01.561Z,27.30
2023-02-11T19:45:29.423Z,27.00
2023-02-11T19:50:51.561Z,22.50
2023-02-11T19:55:55.094Z,21.00
2023-02-11T20:01:08.952Z,23.00
2023-02-11T20:06:14.868Z,24.50
2023-02-11T20:11:18.466Z,23.10
2023-02-11T20:17:02.268Z,23.60
2023-02-11T20:27:32.523Z,26.10
2023-02-11T20:32:41.134Z,24.10
2023-02-11T20:37:44.963Z,27.50
2023-02-11T20:43:50.263Z,24.90
2023-02-11T20:48:56.316Z,26.40
2023-02-11T20:54:00.870Z,23.40
2023-02-11T20:59:06.347Z,20.70
2023-02-11T21:04:25.101Z,22.60
2023-02-11T21:09:33.382Z,27.00
2023-02-11T21:14:45.150Z,25.20
2023-02-11T21:19:55.009Z,21.60
2023-02-11T21:36:34.173Z,24.50
2023-02-11T21:41:37.447Z,22.00
2023-02-11T21:46:41.014Z,19.80
2023-02-11T21:51:44.417Z,12.60
2023-02-11T21:56:50.594Z,7.70
2023-02-11T22:01:54.008Z,7.70
2023-02-11T22:06:57.176Z,7.80
2023-02-11T22:12:00.334Z,5.80
2023-02-11T22:17:04.013Z,6.20
2023-02-11T22:22:08.219Z,6.80
2023-02-11T22:27:12.281Z,5.00
2023-02-11T22:32:17.933Z,5.50
2023-02-11T22:37:21.185Z,5.70
2023-02-11T22:42:24.412Z,5.20
2023-02-11T22:47:27.655Z,4.80
2023-02-11T22:52:30.886Z,4.80
2023-02-11T22:57:34.106Z,7.10
2023-02-11T23:02:37.481Z,5.10
2023-02-11T23:07:40.706Z,5.80
2023-02-11T23:12:44.252Z,5.10
2023-02-11T23:17:47.462Z,3.80
2023-02-11T23:22:50.635Z,3.30
2023-02-11T23:27:53.826Z,2.90
2023-02-11T23:32:56.945Z,3.50
2023-02-11T23:38:00.499Z,2.70
2023-02-11T23:43:03.769Z,2.40
2023-02-11T23:48:07.083Z,2.60
2023-02-11T23:53:11.567Z,3.90
2023-02-11T23:58:15.339Z,2.60
